logo
Rechercher aéroport 
image banner adimage banner adimage banner ad
image banner ad

MMLTA - La Angostura

Situé à Caborca, Mexico

ICAO - , IATA -

Données fournies par Airmate  

Information générale

Coordonnées: N30°51'2" W112°48'53"
Élévation : 213 feet MSL.
Variation magnétique : 9° East
Voir autres Aéroports à Sonora

Données opérationnelles

Special qualification required
Heure actuelle UTC:
Heure actuelle locale:
METAR: MMPE 232040Z 21019KT 10SM SCT200 36/19 A2982 RMK 8/001
Voir NOTAMs / SUP AIP / TFR affectant cet aéroport [VIEW]
Fréquences de communication: [VIEW]

Pistes:

Identifiant RWYQFULongueur (ft)Largeur (ft)SurfaceLDA (ft)
36221360DIRT
18188°221360DIRT

Coordonnées de l'aéroport

Adresse: Caborca Mexico

Vue satellite de MMLTA